Terminal Aerodrome Forecast
Issued by NWS

Home | Current Version | Previous Version | Text Only | Print | Product List | Glossary On
Versions: 1 2 3 4 5 6 7 8 9 10 11 12
000
FTUS45 KABQ 231139
TAFGUP
TAF
KGUP 231139Z 2312/2412 24006KT P6SM SCT150
     FM232000 30011KT P6SM VCSH BKN100
      TEMPO 2320/2323 VRB20G30KT 6SM -TSRA BKN090CB
     FM240100 17007KT P6SM VCSH BKN100
     FM240300 VRB05KT P6SM BKN100=

USA.gov is the U.S. government's official web portal to all federal, state and local government web resources and services.